Terminal Aerodrome Forecast
Issued by NWS

Home | Current Version | Previous Version | Text Only | Print | Product List | Glossary On
Versions: 1 2 3 4 5 6 7 8 9 10 11 12 13 14 15 16 17 18 19 20 21 22 23 24 25 26 27 28 29 30 31 32 33 34 35 36 37 38 39
000
FTUS41 KBOX 230542
TAFBAF
TAF
KBAF 230542Z 2306/2406 04008KT 6SM -DZ OVC015
     FM231400 04013G27KT P6SM -SHRADZ OVC015
     FM232200 04014G33KT P6SM -SHRAPL OVC015
     FM240000 03017G34KT P6SM -RAPL OVC015
     FM240300 03016G33KT 3SM -RAPL BR OVC008=

USA.gov is the U.S. government's official web portal to all federal, state and local government web resources and services.